Rockaway, Oregon
Current Conditions -  °F | °C
As of 5:15 PM on Saturday 25 Oct 2014 (Local Time) from KTMK Reporting Station
Light Rain Light Rain  
Wind Chill: 54°   Ceiling: 2500
Heat Index: 54°   Visibility: 2.5mi
Dew Point: 52°   Wind: 20mph
Humidity: 94%   Direction: 250°WSW
Pressure: 29.58"   Gusts: 25mph
Location:  45.6132°N, 123.654°W
Report Text: KTMK 260015Z AUTO 25017G22KT 2 1/2SM -RA SCT015 BKN025 OVC035 12/11 A2958 RMK AO2 P0005
Loading
Personal Weather Stations






























Interactive Weather Map New forecast layout! Learn more

10-Day Weather Forecast

Advertisements
Track Severe Weather on mobile